Taisho Maru — JI3307 — position and weather

sailwx.info

Track history (hours):
 
Tides and Currents Weather Stations Pressure Air Temp Water Temp Dewpoint Dewpoint Depression Visibility Wind Speed Wind Dir Waves Ship Positions

Taisho Maru

Last reported at 2014-Sep-16 06:28 UTC. Time now 2014-Sep-19 09:51 UTC.
Position N 34°52' E 138°29'.

Length 93 m; draft 6.3 m.

Type: Cargo ship. MMSI: 431300084.

Date/timePositionNaut miles runAvg speedWind from/ knotsBaromVisibWave heightAir tempDewpointWater temp
2014-Sep-16 06:28N 34°52' E 138°29'182 6.3
2014-Sep-15 01:29N 33°56' E 134°59'1112.3
2014-Sep-15 00:33N 34°07' E 135°02'8 8.1
2014-Sep-14 23:31N 34°15' E 135°05'0 0.0
2014-Sep-14 22:31N 34°15' E 135°05'0 0.0
2014-Sep-14 21:31N 34°15' E 135°05'0 0.0
2014-Sep-14 20:31N 34°15' E 135°05'0 0.0
2014-Sep-14 19:31N 34°15' E 135°05'0 0.1
2014-Sep-14 18:31N 34°15' E 135°05'2 2.4
2014-Sep-14 17:34N 34°14' E 135°08'0 0.0
2014-Sep-14 16:33N 34°14' E 135°08'0 0.0
2014-Sep-14 15:33N 34°14' E 135°08'0 0.0
2014-Sep-14 14:33N 34°14' E 135°08'0 0.0
2014-Sep-14 13:33N 34°14' E 135°08'0 0.0
2014-Sep-14 12:33N 34°14' E 135°08'0 0.0
2014-Sep-14 11:33N 34°14' E 135°08'0 0.0
2014-Sep-14 10:33N 34°14' E 135°08'0 0.0
2014-Sep-14 09:33N 34°14' E 135°08'0 0.0
2014-Sep-14 08:33N 34°14' E 135°08'0 0.0
2014-Sep-14 07:34N 34°14' E 135°08'6 6.3
2014-Sep-14 06:33N 34°09' E 135°03'17611.0
2014-Sep-13 14:31N 34°52' E 138°30'9 8.5
2014-Sep-13 13:28N 35°01' E 138°30'185 6.0
2014-Sep-12 06:31N 33°60' E 134°58'1313.0
2014-Sep-12 05:33N 34°12' E 134°58'1313.2
2014-Sep-12 04:32N 34°26' E 135°01'1111.1
2014-Sep-12 03:33N 34°37' E 135°02'1611.5
2014-Sep-12 02:07N 34°40' E 134°42'9 0.4
2014-Sep-11 05:08N 34°37' E 134°53'710.8
2014-Sep-11 04:32N 34°37' E 135°01'1111.5
2014-Sep-11 03:32N 34°26' E 135°03'1313.1
2014-Sep-11 02:33N 34°13' E 135°02'8 2.6
2014-Sep-10 23:22N 34°07' E 135°08'2 1.9
2014-Sep-10 22:33N 34°08' E 135°07'0 0.0
2014-Sep-10 21:32N 34°08' E 135°06'0 0.0
2014-Sep-10 20:32N 34°08' E 135°06'0 0.0
2014-Sep-10 19:32N 34°08' E 135°06'0 0.1
2014-Sep-10 18:26N 34°08' E 135°07'0 0.1
2014-Sep-10 17:26N 34°08' E 135°06'0 0.0
2014-Sep-10 16:29N 34°08' E 135°06'2 2.3
2014-Sep-10 15:33N 34°07' E 135°04'10 0.4
2014-Sep-09 15:33N 33°58' E 134°60'1212.1
2014-Sep-09 14:33N 34°09' E 135°05'3 2.8
2014-Sep-09 13:33N 34°10' E 135°09'0 0.0
2014-Sep-09 12:24N 34°10' E 135°09'0 0.1
2014-Sep-09 11:33N 34°10' E 135°09'0 0.1
2014-Sep-09 10:33N 34°10' E 135°09'0 0.0
2014-Sep-09 09:30N 34°10' E 135°09'0 0.0
2014-Sep-09 08:27N 34°10' E 135°09'0 0.0
2014-Sep-09 07:33N 34°10' E 135°09'0 0.0
2014-Sep-09 06:33N 34°10' E 135°09'0 0.2
2014-Sep-09 05:33N 34°10' E 135°09'7 7.2
2014-Sep-09 04:34N 34°13' E 135°01'1312.9
2014-Sep-09 03:33N 34°27' E 135°01'1110.4
2014-Sep-09 02:32N 34°37' E 134°59'1512.8
2014-Sep-09 01:24N 34°40' E 134°42'  
Track history (hours):
 
Tides and Currents Weather Stations Pressure Air Temp Water Temp Dewpoint Dewpoint Depression Visibility Wind Speed Wind Dir Waves Ship Positions

Taisho Maru

Last reported at 2014-Sep-16 06:28 UTC. Time now 2014-Sep-19 09:51 UTC.
Position N 34°52' E 138°29'.

Length 93 m; draft 6.3 m.

Type: Cargo ship. MMSI: 431300084.

Date/timePositionNaut miles runAvg speedWind from/ knotsBaromVisibWave heightAir tempDewpointWater temp
2014-Sep-16 06:28N 34°52' E 138°29'182 6.3
2014-Sep-15 01:29N 33°56' E 134°59'1112.3
2014-Sep-15 00:33N 34°07' E 135°02'8 8.1
2014-Sep-14 23:31N 34°15' E 135°05'0 0.0
2014-Sep-14 22:31N 34°15' E 135°05'0 0.0
2014-Sep-14 21:31N 34°15' E 135°05'0 0.0
2014-Sep-14 20:31N 34°15' E 135°05'0 0.0
2014-Sep-14 19:31N 34°15' E 135°05'0 0.1
2014-Sep-14 18:31N 34°15' E 135°05'2 2.4
2014-Sep-14 17:34N 34°14' E 135°08'0 0.0
2014-Sep-14 16:33N 34°14' E 135°08'0 0.0
2014-Sep-14 15:33N 34°14' E 135°08'0 0.0
2014-Sep-14 14:33N 34°14' E 135°08'0 0.0
2014-Sep-14 13:33N 34°14' E 135°08'0 0.0
2014-Sep-14 12:33N 34°14' E 135°08'0 0.0
2014-Sep-14 11:33N 34°14' E 135°08'0 0.0
2014-Sep-14 10:33N 34°14' E 135°08'0 0.0
2014-Sep-14 09:33N 34°14' E 135°08'0 0.0
2014-Sep-14 08:33N 34°14' E 135°08'0 0.0
2014-Sep-14 07:34N 34°14' E 135°08'6 6.3
2014-Sep-14 06:33N 34°09' E 135°03'17611.0
2014-Sep-13 14:31N 34°52' E 138°30'9 8.5
2014-Sep-13 13:28N 35°01' E 138°30'185 6.0
2014-Sep-12 06:31N 33°60' E 134°58'1313.0
2014-Sep-12 05:33N 34°12' E 134°58'1313.2
2014-Sep-12 04:32N 34°26' E 135°01'1111.1
2014-Sep-12 03:33N 34°37' E 135°02'1611.5
2014-Sep-12 02:07N 34°40' E 134°42'9 0.4
2014-Sep-11 05:08N 34°37' E 134°53'710.8
2014-Sep-11 04:32N 34°37' E 135°01'1111.5
2014-Sep-11 03:32N 34°26' E 135°03'1313.1
2014-Sep-11 02:33N 34°13' E 135°02'8 2.6
2014-Sep-10 23:22N 34°07' E 135°08'2 1.9
2014-Sep-10 22:33N 34°08' E 135°07'0 0.0
2014-Sep-10 21:32N 34°08' E 135°06'0 0.0
2014-Sep-10 20:32N 34°08' E 135°06'0 0.0
2014-Sep-10 19:32N 34°08' E 135°06'0 0.1
2014-Sep-10 18:26N 34°08' E 135°07'0 0.1
2014-Sep-10 17:26N 34°08' E 135°06'0 0.0
2014-Sep-10 16:29N 34°08' E 135°06'2 2.3
2014-Sep-10 15:33N 34°07' E 135°04'10 0.4
2014-Sep-09 15:33N 33°58' E 134°60'1212.1
2014-Sep-09 14:33N 34°09' E 135°05'3 2.8
2014-Sep-09 13:33N 34°10' E 135°09'0 0.0
2014-Sep-09 12:24N 34°10' E 135°09'0 0.1
2014-Sep-09 11:33N 34°10' E 135°09'0 0.1
2014-Sep-09 10:33N 34°10' E 135°09'0 0.0
2014-Sep-09 09:30N 34°10' E 135°09'0 0.0
2014-Sep-09 08:27N 34°10' E 135°09'0 0.0
2014-Sep-09 07:33N 34°10' E 135°09'0 0.0
2014-Sep-09 06:33N 34°10' E 135°09'0 0.2
2014-Sep-09 05:33N 34°10' E 135°09'7 7.2
2014-Sep-09 04:34N 34°13' E 135°01'1312.9
2014-Sep-09 03:33N 34°27' E 135°01'1110.4
2014-Sep-09 02:32N 34°37' E 134°59'1512.8
2014-Sep-09 01:24N 34°40' E 134°42'  

Dump ship's entire track history